Terminal Aerodrome Forecast
Issued by NWS Northern Indiana

Home | Current Version | Previous Version | Graphics & Text | Print | Product List | Glossary On
Versions: 1 2 3 4 5 6 7 8 9 10 11 12 13 14 15 16 17 18
000
FTUS43 KIWX 171100
TAFFWA
TAF
KFWA 171122Z 1712/1812 21008KT P6SM SCT015 BKN050
     FM171500 24015G22KT P6SM SCT025
     FM172200 26014G22KT P6SM BKN035
     FM180300 28012G17KT P6SM OVC025=

USA.gov is the U.S. government's official web portal to all federal, state and local government web resources and services.